createdAt,value
2019-05-07T00:00:45.318Z,4.06
2019-05-07T00:01:45.293Z,4.06
2019-05-07T00:02:45.284Z,4.07
2019-05-07T00:03:45.273Z,4.07
2019-05-07T00:04:45.261Z,4.10
2019-05-07T00:05:45.273Z,4.08
2019-05-07T00:06:45.242Z,4.06
2019-05-07T00:07:45.222Z,4.04
2019-05-07T00:08:45.222Z,4.00
2019-05-07T00:09:45.202Z,3.98
2019-05-07T00:10:45.193Z,3.98
2019-05-07T00:11:45.192Z,3.95
2019-05-07T00:12:45.171Z,3.93
2019-05-07T00:13:45.162Z,3.95
2019-05-07T00:14:58.142Z,3.95
2019-05-07T00:15:46.142Z,3.93
2019-05-07T00:16:45.141Z,3.92
2019-05-07T00:17:45.120Z,3.92
2019-05-07T00:18:45.105Z,3.93
2019-05-07T00:19:45.091Z,3.93
2019-05-07T00:20:45.080Z,3.95
2019-05-07T00:21:45.088Z,3.96
2019-05-07T00:22:45.060Z,3.96
2019-05-07T00:23:45.058Z,3.95
2019-05-07T00:24:45.039Z,3.90
2019-05-07T00:25:45.027Z,3.89
2019-05-07T00:26:45.029Z,3.90
2019-05-07T00:27:45.007Z,3.89
2019-05-07T00:28:45.003Z,3.88
2019-05-07T00:29:44.980Z,3.88
2019-05-07T00:30:44.967Z,3.86
2019-05-07T00:31:44.976Z,3.88
2019-05-07T00:32:44.948Z,3.86
2019-05-07T00:33:44.938Z,3.86
2019-05-07T00:34:44.927Z,3.86
2019-05-07T00:35:44.917Z,3.86
2019-05-07T00:36:44.917Z,3.82
2019-05-07T00:37:44.898Z,3.82
2019-05-07T00:38:44.877Z,3.81
2019-05-07T00:39:44.875Z,3.80
2019-05-07T00:40:44.857Z,3.78
2019-05-07T00:41:44.856Z,3.78
2019-05-07T00:42:44.836Z,3.78
2019-05-07T00:43:44.827Z,3.81
2019-05-07T00:44:44.816Z,3.82
2019-05-07T00:45:44.805Z,3.82
2019-05-07T00:46:44.813Z,3.84
2019-05-07T00:47:44.787Z,3.81
2019-05-07T00:48:44.774Z,3.80
2019-05-07T00:49:44.757Z,3.78
2019-05-07T00:50:44.745Z,3.75
2019-05-07T00:51:44.744Z,3.78
2019-05-07T00:52:44.725Z,3.77
2019-05-07T00:53:44.722Z,3.78
2019-05-07T00:54:44.704Z,3.77
2019-05-07T00:55:44.695Z,3.78
2019-05-07T00:56:44.693Z,3.78
2019-05-07T00:57:44.673Z,3.75
2019-05-07T00:58:44.664Z,3.72
2019-05-07T00:59:44.644Z,3.71
2019-05-07T01:00:44.634Z,3.68
2019-05-07T01:01:44.641Z,3.63
2019-05-07T01:02:44.612Z,3.62
2019-05-07T01:03:44.602Z,3.59
2019-05-07T01:04:44.593Z,3.57
2019-05-07T01:05:44.582Z,3.59
2019-05-07T01:06:44.582Z,3.60
2019-05-07T01:07:44.562Z,3.60
2019-05-07T01:08:44.551Z,3.59
2019-05-07T01:09:44.541Z,3.60
2019-05-07T01:10:44.521Z,3.59
2019-05-07T01:11:44.547Z,3.57
2019-05-07T01:12:44.501Z,3.60
2019-05-07T01:13:44.491Z,3.59
2019-05-07T01:14:44.480Z,3.57
2019-05-07T01:15:44.470Z,3.57
2019-05-07T01:16:44.465Z,3.56
2019-05-07T01:17:44.463Z,3.52
2019-05-07T01:18:44.440Z,3.49
2019-05-07T01:19:44.429Z,3.49
2019-05-07T01:20:44.410Z,3.46
2019-05-07T01:21:44.409Z,3.44
2019-05-07T01:22:44.408Z,3.44
2019-05-07T01:23:44.381Z,3.44
2019-05-07T01:24:44.370Z,3.42
2019-05-07T01:25:44.358Z,3.44
2019-05-07T01:26:44.347Z,3.45
2019-05-07T01:27:44.350Z,3.46
2019-05-07T01:28:44.327Z,3.46
2019-05-07T01:29:44.308Z,3.49
2019-05-07T01:30:44.306Z,3.45
2019-05-07T01:31:44.301Z,3.44
2019-05-07T01:32:44.298Z,3.42
2019-05-07T01:33:44.269Z,3.41
2019-05-07T01:34:44.260Z,3.39
2019-05-07T01:35:44.247Z,3.37
2019-05-07T01:36:44.236Z,3.34
2019-05-07T01:37:44.237Z,3.34
2019-05-07T01:38:44.222Z,3.33
2019-05-07T01:39:44.207Z,3.34
2019-05-07T01:40:44.196Z,3.33
2019-05-07T01:41:44.185Z,3.30
2019-05-07T01:42:44.185Z,3.25
2019-05-07T01:43:44.156Z,3.22
2019-05-07T01:44:44.153Z,3.19
2019-05-07T01:45:49.025Z,3.19
2019-05-07T01:46:45.124Z,3.17
2019-05-07T01:47:44.125Z,3.16
2019-05-07T01:48:44.105Z,3.13
2019-05-07T01:49:44.097Z,3.13
2019-05-07T01:50:44.086Z,3.10
2019-05-07T01:51:44.073Z,3.08
2019-05-07T01:52:44.234Z,3.07
2019-05-07T01:53:44.057Z,3.05
2019-05-07T01:54:47.139Z,3.04
2019-05-07T01:55:44.023Z,3.05
2019-05-07T01:56:44.013Z,3.07
2019-05-07T01:57:44.004Z,3.07
2019-05-07T01:58:44.003Z,3.05
2019-05-07T01:59:43.982Z,3.05
2019-05-07T02:00:43.972Z,3.04
2019-05-07T02:01:43.962Z,3.01
2019-05-07T02:02:43.952Z,3.02
2019-05-07T02:03:43.955Z,3.01
2019-05-07T02:04:43.931Z,2.99
2019-05-07T02:05:43.920Z,2.97
2019-05-07T02:06:43.901Z,2.98
2019-05-07T02:07:43.891Z,2.98
2019-05-07T02:08:43.900Z,2.95
2019-05-07T02:09:43.870Z,2.95
2019-05-07T02:10:43.860Z,2.95
2019-05-07T02:11:43.850Z,2.95
2019-05-07T02:12:43.840Z,2.94
2019-05-07T02:13:43.840Z,2.92
2019-05-07T02:14:43.819Z,2.92
2019-05-07T02:15:57.183Z,2.89
2019-05-07T02:16:44.791Z,2.87
2019-05-07T02:17:43.787Z,2.86
2019-05-07T02:18:43.790Z,2.84
2019-05-07T02:19:43.759Z,2.84
2019-05-07T02:20:43.748Z,2.84
2019-05-07T02:21:43.738Z,2.83
2019-05-07T02:22:43.728Z,2.81
2019-05-07T02:23:43.728Z,2.79
2019-05-07T02:24:43.711Z,2.77
2019-05-07T02:25:43.701Z,2.74
2019-05-07T02:26:43.704Z,2.76
2019-05-07T02:27:43.678Z,2.74
2019-05-07T02:28:43.677Z,2.73
2019-05-07T02:29:43.655Z,2.73
2019-05-07T02:30:44.592Z,2.73
2019-05-07T02:31:44.379Z,2.71
2019-05-07T02:32:43.659Z,2.69
2019-05-07T02:33:43.877Z,2.68
2019-05-07T02:34:44.402Z,2.69
2019-05-07T02:35:44.088Z,2.69
2019-05-07T02:36:43.717Z,2.69
2019-05-07T02:37:50.955Z,2.69
2019-05-07T02:38:44.566Z,2.68
2019-05-07T02:39:44.383Z,2.66
2019-05-07T02:40:43.630Z,2.65
2019-05-07T02:41:44.315Z,2.63
2019-05-07T02:42:44.258Z,2.62
2019-05-07T02:43:43.506Z,2.63
2019-05-07T02:44:43.902Z,2.65
2019-05-07T02:45:44.069Z,2.63
2019-05-07T02:46:43.633Z,2.66
2019-05-07T02:47:43.904Z,2.62
2019-05-07T02:48:43.455Z,2.62
2019-05-07T02:49:44.025Z,2.59
2019-05-07T02:50:43.798Z,2.61
2019-05-07T02:51:43.890Z,2.61
2019-05-07T02:52:44.000Z,2.59
2019-05-07T02:53:43.694Z,2.59
2019-05-07T02:54:43.753Z,2.58
2019-05-07T02:55:43.712Z,2.58
2019-05-07T02:56:43.579Z,2.56
2019-05-07T02:57:43.606Z,2.55
2019-05-07T02:58:43.585Z,2.51
2019-05-07T02:59:44.051Z,2.51
2019-05-07T03:00:43.616Z,2.50
2019-05-07T03:01:43.609Z,2.48
2019-05-07T03:02:43.855Z,2.47
2019-05-07T03:03:44.876Z,2.48
2019-05-07T03:04:43.665Z,2.50
2019-05-07T03:05:43.562Z,2.48
2019-05-07T03:06:44.178Z,2.47
2019-05-07T03:07:43.240Z,2.48
2019-05-07T03:08:43.985Z,2.48
2019-05-07T03:09:43.424Z,2.47
2019-05-07T03:10:43.734Z,2.50
2019-05-07T03:11:43.630Z,2.50
2019-05-07T03:12:43.302Z,2.50
2019-05-07T03:13:43.427Z,2.50
2019-05-07T03:14:43.832Z,2.50
2019-05-07T03:15:43.825Z,2.48
2019-05-07T03:16:48.450Z,2.48
2019-05-07T03:17:44.122Z,2.47
2019-05-07T03:18:43.981Z,2.47
2019-05-07T03:19:43.254Z,2.47
2019-05-07T03:20:43.165Z,2.48
2019-05-07T03:21:44.139Z,2.45
2019-05-07T03:22:43.152Z,2.47
2019-05-07T03:23:43.083Z,2.48
2019-05-07T03:24:43.602Z,2.47
2019-05-07T03:25:43.316Z,2.48
2019-05-07T03:26:43.658Z,2.47
2019-05-07T03:27:43.274Z,2.47
2019-05-07T03:28:43.037Z,2.45
2019-05-07T03:29:44.177Z,2.45
2019-05-07T03:30:45.703Z,2.44
2019-05-07T03:31:46.812Z,2.44
2019-05-07T03:32:47.563Z,2.45
2019-05-07T03:33:47.307Z,2.47
2019-05-07T03:34:46.650Z,2.45
2019-05-07T03:35:46.570Z,2.48
2019-05-07T03:36:47.615Z,2.48
2019-05-07T03:37:44.287Z,2.50
2019-05-07T03:38:43.921Z,2.51
2019-05-07T03:39:43.453Z,2.50
2019-05-07T03:40:44.805Z,2.50
2019-05-07T03:41:43.466Z,2.51
2019-05-07T03:42:43.932Z,2.51
2019-05-07T03:43:43.559Z,2.51
2019-05-07T03:44:44.651Z,2.53
2019-05-07T03:45:43.421Z,2.53
2019-05-07T03:46:56.833Z,2.53
2019-05-07T03:47:44.118Z,2.53
2019-05-07T03:48:43.970Z,2.53
2019-05-07T03:49:43.070Z,2.56
2019-05-07T03:50:43.261Z,2.53
2019-05-07T03:51:44.205Z,2.58
2019-05-07T03:52:43.091Z,2.55
2019-05-07T03:53:43.618Z,2.55
2019-05-07T03:54:43.200Z,2.55
2019-05-07T03:55:44.772Z,2.56
2019-05-07T03:56:43.609Z,2.56
2019-05-07T03:57:43.578Z,2.59
2019-05-07T03:58:43.507Z,2.56
2019-05-07T03:59:43.340Z,2.59
2019-05-07T04:00:44.314Z,2.58
2019-05-07T04:01:43.146Z,2.58
2019-05-07T04:02:43.680Z,2.59
2019-05-07T04:03:44.742Z,2.61
2019-05-07T04:04:43.256Z,2.59
2019-05-07T04:05:43.511Z,2.59
2019-05-07T04:06:43.423Z,2.59
2019-05-07T04:07:43.205Z,2.61
2019-05-07T04:08:43.438Z,2.59
2019-05-07T04:09:43.785Z,2.58
2019-05-07T04:10:44.376Z,2.59
2019-05-07T04:11:43.250Z,2.61
2019-05-07T04:12:44.181Z,2.63
2019-05-07T04:13:44.016Z,2.66
2019-05-07T04:14:43.192Z,2.68
2019-05-07T04:15:43.922Z,2.71
2019-05-07T04:16:44.085Z,2.71
2019-05-07T04:17:42.987Z,2.73
2019-05-07T04:18:43.691Z,2.74
2019-05-07T04:19:44.057Z,2.73
2019-05-07T04:20:43.558Z,2.76
2019-05-07T04:21:43.515Z,2.74
2019-05-07T04:22:43.313Z,2.73
2019-05-07T04:23:43.672Z,2.74
2019-05-07T04:24:42.995Z,2.76
2019-05-07T04:25:43.558Z,2.76
2019-05-07T04:26:43.031Z,2.77
2019-05-07T04:27:46.735Z,2.77
2019-05-07T04:28:43.595Z,2.76
2019-05-07T04:29:42.995Z,2.77
2019-05-07T04:30:43.777Z,2.74
2019-05-07T04:31:43.589Z,2.73
2019-05-07T04:32:43.363Z,2.74
2019-05-07T04:33:43.908Z,2.73
2019-05-07T04:34:44.484Z,2.74
2019-05-07T04:35:43.488Z,2.73
2019-05-07T04:36:43.579Z,2.71
2019-05-07T04:37:42.849Z,2.69
2019-05-07T04:38:44.025Z,2.71
2019-05-07T04:39:42.873Z,2.73
2019-05-07T04:40:43.384Z,2.76
2019-05-07T04:41:43.429Z,2.76
2019-05-07T04:42:42.794Z,2.76
2019-05-07T04:43:43.426Z,2.74
2019-05-07T04:44:43.745Z,2.74
2019-05-07T04:45:43.236Z,2.71
2019-05-07T04:46:47.531Z,2.65
2019-05-07T04:47:47.552Z,2.62
2019-05-07T04:48:43.828Z,2.65
2019-05-07T04:49:43.687Z,2.66
2019-05-07T04:50:46.642Z,2.68
2019-05-07T04:51:43.527Z,2.63
2019-05-07T04:52:43.690Z,2.56
2019-05-07T04:53:42.994Z,2.48
2019-05-07T04:54:43.744Z,2.47
2019-05-07T04:55:43.107Z,2.48
2019-05-07T04:56:43.625Z,2.48
2019-05-07T04:57:43.809Z,2.47
2019-05-07T04:58:43.323Z,2.48
2019-05-07T04:59:42.752Z,2.51
2019-05-07T05:00:43.089Z,2.50
2019-05-07T05:01:43.585Z,2.51
2019-05-07T05:02:43.531Z,2.53
2019-05-07T05:03:43.717Z,2.56
2019-05-07T05:04:43.924Z,2.59
2019-05-07T05:05:43.539Z,2.63
2019-05-07T05:06:42.453Z,2.68
2019-05-07T05:07:43.185Z,2.73
2019-05-07T05:08:43.527Z,2.76
2019-05-07T05:09:42.675Z,2.81
2019-05-07T05:10:43.275Z,2.87
2019-05-07T05:11:43.882Z,2.92
2019-05-07T05:12:42.866Z,2.95
2019-05-07T05:13:44.368Z,2.99
2019-05-07T05:14:43.518Z,2.99
2019-05-07T05:15:43.094Z,3.01
2019-05-07T05:16:42.555Z,3.02
2019-05-07T05:17:50.412Z,3.04
2019-05-07T05:18:42.795Z,3.04
2019-05-07T05:19:43.752Z,3.07
2019-05-07T05:20:42.226Z,3.12
2019-05-07T05:21:42.075Z,3.15
2019-05-07T05:22:42.491Z,3.22
2019-05-07T05:23:42.039Z,3.28
2019-05-07T05:24:42.394Z,3.33
2019-05-07T05:25:43.136Z,3.35
2019-05-07T05:26:41.966Z,3.39
2019-05-07T05:27:42.961Z,3.41
2019-05-07T05:28:42.102Z,3.41
2019-05-07T05:29:42.917Z,3.42
2019-05-07T05:30:42.412Z,3.44
2019-05-07T05:31:42.278Z,3.49
2019-05-07T05:32:42.438Z,3.54
2019-05-07T05:33:42.123Z,3.59
2019-05-07T05:34:42.616Z,3.63
2019-05-07T05:35:43.127Z,3.68
2019-05-07T05:36:42.564Z,3.71
2019-05-07T05:37:42.903Z,3.72
2019-05-07T05:38:42.326Z,3.75
2019-05-07T05:39:42.625Z,3.72
2019-05-07T05:40:42.713Z,3.68
2019-05-07T05:41:42.217Z,3.63
2019-05-07T05:42:42.863Z,3.63
2019-05-07T05:43:42.546Z,3.64
2019-05-07T05:44:41.826Z,3.62
2019-05-07T05:45:42.630Z,3.60
2019-05-07T05:46:42.810Z,3.60
2019-05-07T05:47:44.826Z,3.63
2019-05-07T05:48:42.483Z,3.70
2019-05-07T05:49:42.858Z,3.70
2019-05-07T05:50:42.248Z,3.70
2019-05-07T05:51:42.976Z,3.68
2019-05-07T05:52:42.491Z,3.70
2019-05-07T05:53:43.374Z,3.71
2019-05-07T05:54:42.624Z,3.72
2019-05-07T05:55:42.794Z,3.74
2019-05-07T05:56:42.691Z,3.78
2019-05-07T05:57:42.444Z,3.81
2019-05-07T05:58:43.111Z,3.84
2019-05-07T05:59:48.988Z,3.86
2019-05-07T06:00:42.383Z,3.88
2019-05-07T06:01:42.630Z,3.90
2019-05-07T06:02:44.040Z,3.92
2019-05-07T06:03:43.023Z,3.93
2019-05-07T06:04:42.037Z,3.96
2019-05-07T06:05:42.037Z,4.00
2019-05-07T06:06:42.368Z,4.04
2019-05-07T06:07:42.719Z,4.06
2019-05-07T06:08:43.370Z,4.11
2019-05-07T06:09:42.265Z,4.16
2019-05-07T06:10:42.488Z,4.20
2019-05-07T06:11:42.936Z,4.25
2019-05-07T06:12:42.839Z,4.31
2019-05-07T06:13:41.954Z,4.35
2019-05-07T06:14:42.452Z,4.36
2019-05-07T06:15:42.022Z,4.38
2019-05-07T06:16:42.035Z,4.38
2019-05-07T06:17:42.546Z,4.36
2019-05-07T06:18:41.857Z,4.43
2019-05-07T06:19:42.397Z,4.42
2019-05-07T06:20:42.816Z,4.43
2019-05-07T06:21:41.901Z,4.44
2019-05-07T06:22:42.478Z,4.44
2019-05-07T06:23:42.024Z,4.47
2019-05-07T06:24:42.698Z,4.50
2019-05-07T06:25:42.860Z,4.53
2019-05-07T06:26:42.568Z,4.54
2019-05-07T06:27:41.807Z,4.61
2019-05-07T06:28:42.535Z,4.67
2019-05-07T06:29:42.641Z,4.72
2019-05-07T06:30:41.792Z,4.83
2019-05-07T06:31:42.213Z,4.88
2019-05-07T06:32:42.966Z,4.91
2019-05-07T06:33:43.009Z,4.90
2019-05-07T06:34:44.520Z,4.87
2019-05-07T06:35:42.861Z,4.86
2019-05-07T06:36:42.376Z,4.80
2019-05-07T06:37:42.763Z,4.83
2019-05-07T06:38:42.689Z,4.86
2019-05-07T06:39:42.133Z,4.91
2019-05-07T06:40:42.353Z,4.99
2019-05-07T06:41:41.864Z,5.06
2019-05-07T06:42:42.776Z,5.11
2019-05-07T06:43:42.147Z,5.14
2019-05-07T06:44:42.747Z,5.12
2019-05-07T06:45:42.195Z,5.15
2019-05-07T06:46:41.923Z,5.19
2019-05-07T06:47:42.487Z,5.19
2019-05-07T06:48:43.667Z,5.17
2019-05-07T06:49:42.823Z,5.20
2019-05-07T06:50:43.103Z,5.20
2019-05-07T06:51:41.992Z,5.23
2019-05-07T06:52:42.566Z,5.30
2019-05-07T06:53:42.246Z,5.40
2019-05-07T06:54:42.725Z,5.44
2019-05-07T06:55:42.684Z,5.51
2019-05-07T06:56:42.110Z,5.59
2019-05-07T06:57:42.523Z,5.67
2019-05-07T06:58:41.913Z,5.70
2019-05-07T06:59:42.338Z,5.78
2019-05-07T07:00:42.245Z,5.85
2019-05-07T07:01:42.321Z,5.92
2019-05-07T07:02:41.956Z,5.98
2019-05-07T07:03:41.996Z,6.05
2019-05-07T07:04:42.367Z,6.13
2019-05-07T07:05:42.445Z,6.17
2019-05-07T07:06:42.648Z,6.24
2019-05-07T07:07:42.143Z,6.25
2019-05-07T07:08:41.976Z,6.30
2019-05-07T07:09:42.432Z,6.30
2019-05-07T07:10:42.561Z,6.38
2019-05-07T07:11:42.360Z,6.43
2019-05-07T07:12:42.474Z,6.50
2019-05-07T07:13:42.558Z,6.57
2019-05-07T07:14:42.361Z,6.64
2019-05-07T07:15:42.594Z,6.71
2019-05-07T07:16:42.056Z,6.75
2019-05-07T07:17:41.917Z,6.82
2019-05-07T07:18:49.539Z,6.87
2019-05-07T07:19:42.784Z,6.91
2019-05-07T07:20:40.444Z,6.96
2019-05-07T07:21:42.158Z,6.97
2019-05-07T07:22:42.462Z,7.00
2019-05-07T07:23:42.788Z,7.07
2019-05-07T07:24:42.405Z,7.12
2019-05-07T07:25:40.382Z,7.16
2019-05-07T07:26:42.221Z,7.21
2019-05-07T07:27:42.715Z,7.21
2019-05-07T07:28:40.362Z,7.29
2019-05-07T07:29:41.933Z,7.36
2019-05-07T07:30:42.053Z,7.39
2019-05-07T07:31:42.449Z,7.44
2019-05-07T07:32:42.403Z,7.47
2019-05-07T07:33:40.312Z,7.51
2019-05-07T07:34:42.544Z,7.54
2019-05-07T07:35:40.273Z,7.55
2019-05-07T07:36:42.221Z,7.58
2019-05-07T07:37:40.253Z,7.66
2019-05-07T07:38:42.062Z,7.69
2019-05-07T07:39:40.231Z,7.69
2019-05-07T07:40:42.215Z,7.70
2019-05-07T07:41:42.118Z,7.71
2019-05-07T07:42:42.530Z,7.74
2019-05-07T07:43:41.931Z,7.76
2019-05-07T07:44:42.428Z,7.76
2019-05-07T07:45:42.066Z,7.79
2019-05-07T07:46:42.290Z,7.81
2019-05-07T07:47:42.161Z,7.81
2019-05-07T07:48:40.131Z,7.82
2019-05-07T07:49:42.053Z,7.84
2019-05-07T07:50:42.096Z,7.85
2019-05-07T07:51:44.445Z,7.88
2019-05-07T07:52:42.018Z,7.91
2019-05-07T07:53:42.358Z,7.95
2019-05-07T07:54:40.079Z,7.96
2019-05-07T07:55:40.059Z,8.00
2019-05-07T07:56:50.185Z,8.00
2019-05-07T07:57:42.716Z,8.02
2019-05-07T07:58:41.937Z,8.03
2019-05-07T07:59:42.002Z,8.03
2019-05-07T08:00:40.007Z,8.03
2019-05-07T08:01:41.970Z,8.04
2019-05-07T08:02:42.274Z,8.04
2019-05-07T08:03:41.680Z,8.07
2019-05-07T08:04:42.451Z,8.10
2019-05-07T08:05:39.947Z,8.12
2019-05-07T08:06:41.821Z,8.13
2019-05-07T08:07:39.930Z,8.13
2019-05-07T08:08:39.919Z,8.18
2019-05-07T08:09:39.916Z,8.20
2019-05-07T08:10:39.895Z,8.24
2019-05-07T08:11:39.886Z,8.24
2019-05-07T08:12:42.050Z,8.29
2019-05-07T08:13:39.867Z,8.34
2019-05-07T08:14:39.867Z,8.39
2019-05-07T08:15:39.837Z,8.43
2019-05-07T08:16:39.834Z,8.52
2019-05-07T08:17:41.865Z,8.57
2019-05-07T08:18:39.886Z,8.61
2019-05-07T08:19:39.806Z,8.67
2019-05-07T08:20:39.793Z,8.73
2019-05-07T08:21:41.927Z,8.80
2019-05-07T08:22:42.160Z,8.88
2019-05-07T08:23:39.753Z,8.96
2019-05-07T08:24:39.763Z,8.98
2019-05-07T08:25:39.735Z,9.04
2019-05-07T08:26:39.724Z,9.06
2019-05-07T08:27:41.828Z,9.10
2019-05-07T08:28:41.824Z,9.12
2019-05-07T08:29:39.705Z,9.17
2019-05-07T08:30:41.539Z,9.20
2019-05-07T08:31:39.663Z,9.24
2019-05-07T08:32:39.813Z,9.34
2019-05-07T08:33:39.647Z,9.41
2019-05-07T08:34:39.642Z,9.50
2019-05-07T08:35:41.798Z,9.59
2019-05-07T08:36:39.613Z,9.65
2019-05-07T08:37:39.601Z,9.65
2019-05-07T08:38:39.593Z,9.73
2019-05-07T08:39:39.592Z,9.78
2019-05-07T08:40:41.767Z,9.81
2019-05-07T08:41:39.552Z,9.88
2019-05-07T08:42:41.790Z,9.88
2019-05-07T08:43:39.532Z,9.95
2019-05-07T08:44:39.521Z,10.06
2019-05-07T08:45:39.523Z,10.11
2019-05-07T08:46:39.503Z,10.18
2019-05-07T08:47:39.491Z,10.26
2019-05-07T08:48:39.481Z,10.36
2019-05-07T08:49:40.331Z,10.44
2019-05-07T08:50:39.471Z,10.49
2019-05-07T08:51:39.449Z,10.51
2019-05-07T08:52:39.432Z,10.58
2019-05-07T08:53:39.421Z,10.65
2019-05-07T08:54:39.410Z,10.65
2019-05-07T08:55:39.419Z,10.49
2019-05-07T08:56:39.390Z,10.43
2019-05-07T08:57:39.381Z,10.35
2019-05-07T08:58:39.370Z,10.34
2019-05-07T08:59:39.360Z,10.39
2019-05-07T09:00:39.367Z,10.54
2019-05-07T09:01:39.338Z,10.58
2019-05-07T09:02:39.319Z,10.55
2019-05-07T09:03:39.311Z,10.62
2019-05-07T09:04:39.299Z,10.68
2019-05-07T09:05:39.308Z,10.73
2019-05-07T09:06:39.279Z,10.75
2019-05-07T09:07:39.268Z,10.81
2019-05-07T09:08:39.258Z,10.80
2019-05-07T09:09:39.248Z,10.73
2019-05-07T09:10:39.248Z,10.76
2019-05-07T09:11:39.232Z,10.76
2019-05-07T09:12:39.215Z,10.78
2019-05-07T09:13:39.205Z,10.81
2019-05-07T09:14:39.188Z,10.69
2019-05-07T09:15:39.188Z,10.46
2019-05-07T09:16:39.170Z,10.44
2019-05-07T09:17:39.158Z,10.52
2019-05-07T09:18:39.147Z,10.65
2019-05-07T09:19:51.170Z,10.80
2019-05-07T09:20:42.377Z,10.94
2019-05-07T09:21:39.121Z,11.02
2019-05-07T09:22:39.101Z,11.16
2019-05-07T09:23:39.091Z,11.16
2019-05-07T09:24:39.090Z,11.09
2019-05-07T09:25:39.081Z,11.17
2019-05-07T09:26:39.060Z,11.26
2019-05-07T09:27:39.042Z,11.35
2019-05-07T09:28:39.035Z,11.39
2019-05-07T09:29:39.021Z,11.41
2019-05-07T09:30:39.041Z,11.38
2019-05-07T09:31:39.004Z,11.30
2019-05-07T09:32:38.989Z,11.27
2019-05-07T09:33:38.980Z,11.36
2019-05-07T09:34:38.960Z,11.35
2019-05-07T09:35:39.844Z,11.30
2019-05-07T09:36:38.962Z,11.26
2019-05-07T09:37:38.930Z,11.30
2019-05-07T09:38:38.921Z,11.23
2019-05-07T09:39:38.910Z,11.31
2019-05-07T09:40:38.906Z,11.42
2019-05-07T09:41:38.898Z,11.46
2019-05-07T09:42:38.879Z,11.46
2019-05-07T09:43:38.859Z,11.30
2019-05-07T09:44:38.853Z,11.31
2019-05-07T09:45:38.839Z,11.42
2019-05-07T09:46:38.839Z,11.53
2019-05-07T09:47:38.819Z,11.64
2019-05-07T09:48:38.810Z,11.75
2019-05-07T09:49:38.798Z,11.82
2019-05-07T09:50:38.788Z,11.88
2019-05-07T09:51:38.788Z,11.94
2019-05-07T09:52:38.758Z,11.93
2019-05-07T09:53:38.748Z,11.87
2019-05-07T09:54:38.738Z,11.67
2019-05-07T09:55:38.728Z,11.46
2019-05-07T09:56:38.728Z,11.35
2019-05-07T09:57:38.714Z,11.31
2019-05-07T09:58:39.268Z,11.30
2019-05-07T09:59:38.677Z,11.21
2019-05-07T10:00:38.668Z,11.08
2019-05-07T10:01:38.667Z,11.12
2019-05-07T10:02:38.648Z,11.24
2019-05-07T10:03:38.636Z,11.35
2019-05-07T10:04:38.628Z,11.46
2019-05-07T10:05:38.617Z,11.54
2019-05-07T10:06:38.616Z,11.66
2019-05-07T10:07:38.595Z,11.79
2019-05-07T10:08:38.577Z,11.79
2019-05-07T10:09:38.569Z,11.96
2019-05-07T10:10:38.561Z,12.05
2019-05-07T10:11:38.557Z,12.23
2019-05-07T10:12:38.537Z,12.37
2019-05-07T10:13:38.538Z,12.51
2019-05-07T10:14:38.516Z,12.58
2019-05-07T10:15:38.497Z,12.67
2019-05-07T10:16:38.495Z,12.77
2019-05-07T10:17:38.493Z,12.77
2019-05-07T10:18:38.466Z,12.62
2019-05-07T10:19:38.456Z,12.58
2019-05-07T10:20:38.447Z,12.46
2019-05-07T10:21:38.436Z,12.49
2019-05-07T10:22:38.436Z,12.33
2019-05-07T10:23:38.410Z,12.18
2019-05-07T10:24:38.399Z,12.12
2019-05-07T10:25:38.390Z,12.07
2019-05-07T10:26:40.103Z,12.18
2019-05-07T10:27:38.375Z,12.31
2019-05-07T10:28:38.367Z,12.48
2019-05-07T10:29:38.350Z,12.51
2019-05-07T10:30:38.337Z,12.54
2019-05-07T10:31:38.316Z,12.62
2019-05-07T10:32:38.324Z,12.67
2019-05-07T10:33:38.295Z,12.67
2019-05-07T10:34:38.285Z,12.67
2019-05-07T10:35:38.275Z,12.66
2019-05-07T10:36:38.265Z,12.58
2019-05-07T10:37:38.265Z,12.61
2019-05-07T10:38:38.243Z,12.61
2019-05-07T10:39:38.225Z,12.61
2019-05-07T10:40:38.216Z,12.61
2019-05-07T10:41:38.204Z,12.48
2019-05-07T10:42:38.206Z,12.54
2019-05-07T10:43:38.185Z,12.66
2019-05-07T10:44:38.196Z,12.76
2019-05-07T10:45:38.164Z,12.91
2019-05-07T10:46:38.154Z,12.91
2019-05-07T10:47:38.170Z,12.84
2019-05-07T10:48:38.125Z,12.74
2019-05-07T10:49:38.114Z,12.77
2019-05-07T10:50:39.316Z,12.91
2019-05-07T10:51:38.098Z,13.03
2019-05-07T10:52:38.094Z,13.13
2019-05-07T10:53:38.073Z,13.19
2019-05-07T10:54:38.054Z,13.25
2019-05-07T10:55:38.044Z,13.21
2019-05-07T10:56:38.033Z,13.19
2019-05-07T10:57:38.054Z,13.17
2019-05-07T10:58:38.014Z,13.13
2019-05-07T10:59:38.003Z,13.13
2019-05-07T11:00:37.991Z,13.13
2019-05-07T11:01:37.984Z,13.04
2019-05-07T11:02:39.307Z,13.06
2019-05-07T11:03:37.971Z,13.03
2019-05-07T11:04:42.146Z,13.09
2019-05-07T11:05:38.932Z,13.12
2019-05-07T11:06:37.922Z,13.14
2019-05-07T11:07:37.913Z,13.25
2019-05-07T11:08:37.913Z,13.28
2019-05-07T11:09:37.891Z,13.13
2019-05-07T11:10:37.883Z,13.04
2019-05-07T11:11:37.872Z,12.89
2019-05-07T11:12:37.852Z,12.91
2019-05-07T11:13:37.853Z,13.01
2019-05-07T11:14:37.831Z,13.19
2019-05-07T11:15:37.833Z,13.35
2019-05-07T11:16:37.811Z,13.39
2019-05-07T11:17:37.802Z,13.10
2019-05-07T11:18:37.801Z,12.92
2019-05-07T11:19:37.772Z,12.87
2019-05-07T11:20:48.935Z,12.71
2019-05-07T11:21:38.770Z,12.77
2019-05-07T11:22:37.768Z,12.89
2019-05-07T11:23:37.741Z,13.01
2019-05-07T11:24:37.722Z,13.12
2019-05-07T11:25:37.702Z,13.06
2019-05-07T11:26:37.692Z,13.10
2019-05-07T11:27:37.684Z,13.19
2019-05-07T11:28:37.693Z,13.32
2019-05-07T11:29:37.661Z,13.46
2019-05-07T11:30:37.650Z,13.54
2019-05-07T11:31:37.640Z,13.53
2019-05-07T11:32:37.630Z,13.43
2019-05-07T11:33:37.630Z,13.13
2019-05-07T11:34:37.604Z,13.10
2019-05-07T11:35:37.596Z,12.99
2019-05-07T11:36:37.580Z,13.06
2019-05-07T11:37:37.581Z,13.06
2019-05-07T11:38:37.570Z,13.14
2019-05-07T11:39:37.550Z,13.25
2019-05-07T11:40:37.530Z,13.36
2019-05-07T11:41:37.521Z,13.43
2019-05-07T11:42:37.511Z,13.48
2019-05-07T11:43:37.513Z,13.59
2019-05-07T11:44:37.490Z,13.73
2019-05-07T11:45:37.479Z,13.84
2019-05-07T11:46:37.472Z,13.83
2019-05-07T11:47:37.463Z,13.88
2019-05-07T11:48:37.459Z,13.86
2019-05-07T11:49:37.431Z,13.81
2019-05-07T11:50:37.420Z,13.66
2019-05-07T11:51:37.411Z,13.65
2019-05-07T11:52:37.400Z,13.80
2019-05-07T11:53:37.400Z,13.94
2019-05-07T11:54:37.378Z,14.12
2019-05-07T11:55:37.369Z,14.24
2019-05-07T11:56:37.360Z,14.30
2019-05-07T11:57:37.340Z,14.41
2019-05-07T11:58:37.339Z,14.52
2019-05-07T11:59:37.319Z,14.52
2019-05-07T12:00:37.310Z,14.46
2019-05-07T12:01:46.608Z,14.42
2019-05-07T12:02:38.288Z,14.39
2019-05-07T12:03:37.290Z,14.36
2019-05-07T12:04:37.260Z,14.34
2019-05-07T12:05:37.251Z,14.38
2019-05-07T12:06:37.245Z,14.45
2019-05-07T12:07:37.229Z,14.36
2019-05-07T12:08:44.563Z,14.24
2019-05-07T12:09:38.217Z,14.24
2019-05-07T12:10:37.205Z,14.30
2019-05-07T12:11:37.190Z,14.34
2019-05-07T12:12:37.169Z,14.38
2019-05-07T12:13:37.158Z,14.41
2019-05-07T12:14:37.159Z,14.38
2019-05-07T12:15:37.140Z,14.34
2019-05-07T12:16:37.129Z,14.02
2019-05-07T12:17:37.117Z,13.99
2019-05-07T12:18:37.107Z,13.98
2019-05-07T12:19:37.108Z,14.04
2019-05-07T12:20:37.084Z,14.12
2019-05-07T12:21:37.067Z,14.27
2019-05-07T12:22:37.058Z,14.36
2019-05-07T12:23:37.055Z,14.35
2019-05-07T12:24:37.048Z,14.35
2019-05-07T12:25:37.028Z,14.42
2019-05-07T12:26:37.016Z,14.35
2019-05-07T12:27:37.010Z,14.42
2019-05-07T12:28:36.987Z,14.53
2019-05-07T12:29:36.998Z,14.60
2019-05-07T12:30:36.968Z,14.69
2019-05-07T12:31:36.960Z,14.44
2019-05-07T12:32:36.947Z,14.26
2019-05-07T12:33:36.938Z,14.31
2019-05-07T12:34:36.939Z,14.42
2019-05-07T12:35:36.921Z,14.61
2019-05-07T12:36:36.901Z,14.74
2019-05-07T12:37:36.887Z,14.71
2019-05-07T12:38:36.878Z,14.63
2019-05-07T12:39:36.878Z,14.64
2019-05-07T12:40:36.857Z,14.63
2019-05-07T12:41:36.850Z,14.57
2019-05-07T12:42:36.841Z,14.49
2019-05-07T12:43:36.817Z,14.46
2019-05-07T12:44:36.907Z,14.41
2019-05-07T12:45:36.799Z,14.45
2019-05-07T12:46:36.790Z,14.44
2019-05-07T12:47:36.776Z,14.41
2019-05-07T12:48:36.802Z,14.38
2019-05-07T12:49:36.770Z,14.26
2019-05-07T12:50:36.748Z,14.39
2019-05-07T12:51:37.856Z,14.54
2019-05-07T12:52:36.717Z,14.67
2019-05-07T12:53:36.708Z,14.85
2019-05-07T12:54:36.838Z,15.03
2019-05-07T12:55:36.687Z,15.20
2019-05-07T12:56:36.677Z,15.33
2019-05-07T12:57:36.668Z,15.28
2019-05-07T12:58:36.656Z,15.18
2019-05-07T12:59:36.658Z,15.12
2019-05-07T13:00:36.627Z,15.09
2019-05-07T13:01:36.627Z,15.16
2019-05-07T13:02:40.804Z,15.22
2019-05-07T13:03:37.595Z,15.20
2019-05-07T13:04:36.598Z,15.19
2019-05-07T13:05:36.579Z,15.31
2019-05-07T13:06:36.567Z,15.38
2019-05-07T13:07:36.555Z,15.41
2019-05-07T13:08:36.546Z,15.53
2019-05-07T13:09:36.546Z,15.68